createdAt,value
2023-03-31T00:00:48.091Z,421.00
2023-03-31T00:01:48.119Z,419.00
2023-03-31T00:02:48.485Z,418.00
2023-03-31T00:03:48.375Z,419.00
2023-03-31T00:04:48.179Z,420.00
2023-03-31T00:05:48.189Z,421.00
2023-03-31T00:06:48.218Z,421.00
2023-03-31T00:07:48.232Z,420.00
2023-03-31T00:08:48.268Z,422.00
2023-03-31T00:09:48.290Z,422.00
2023-03-31T00:10:48.302Z,422.00
2023-03-31T00:11:48.295Z,422.00
2023-03-31T00:12:48.332Z,423.00
2023-03-31T00:13:48.356Z,422.00
2023-03-31T00:14:48.340Z,421.00
2023-03-31T00:15:48.382Z,422.00
2023-03-31T00:16:48.426Z,424.00
2023-03-31T00:17:48.463Z,426.00
2023-03-31T00:18:48.499Z,425.00
2023-03-31T00:19:48.520Z,423.00
2023-03-31T00:20:48.493Z,424.00
2023-03-31T00:21:48.615Z,423.00
2023-03-31T00:22:48.545Z,422.00
2023-03-31T00:23:48.587Z,421.00
2023-03-31T00:24:48.586Z,420.00
2023-03-31T00:25:48.589Z,419.00
2023-03-31T00:26:48.649Z,418.00
2023-03-31T00:27:48.664Z,419.00
2023-03-31T00:28:48.703Z,420.00
2023-03-31T00:29:48.780Z,421.00
2023-03-31T00:30:48.785Z,421.00
2023-03-31T00:31:48.823Z,419.00
2023-03-31T00:32:48.852Z,417.00
2023-03-31T00:33:48.850Z,416.00
2023-03-31T00:34:48.857Z,418.00
2023-03-31T00:35:48.925Z,418.00
2023-03-31T00:36:48.949Z,420.00
2023-03-31T00:37:49.008Z,420.00
2023-03-31T00:38:48.985Z,418.00
2023-03-31T00:39:48.992Z,421.00
2023-03-31T00:40:49.791Z,422.00
2023-03-31T00:41:49.072Z,422.00
2023-03-31T00:42:49.060Z,422.00
2023-03-31T00:43:49.124Z,423.00
2023-03-31T00:44:49.116Z,423.00
2023-03-31T00:45:49.198Z,420.00
2023-03-31T00:46:49.194Z,421.00
2023-03-31T00:47:49.191Z,423.00
2023-03-31T00:48:49.206Z,425.00
2023-03-31T00:49:49.263Z,425.00
2023-03-31T00:50:49.289Z,423.00
2023-03-31T00:51:49.341Z,424.00
2023-03-31T00:52:49.337Z,423.00
2023-03-31T00:53:49.347Z,423.00
2023-03-31T00:54:49.450Z,423.00
2023-03-31T00:55:49.400Z,423.00
2023-03-31T00:56:49.458Z,425.00
2023-03-31T00:57:49.476Z,425.00
2023-03-31T00:58:49.471Z,424.00
2023-03-31T00:59:49.524Z,423.00
2023-03-31T01:00:49.552Z,423.00
2023-03-31T01:01:49.602Z,423.00
2023-03-31T01:02:49.651Z,421.00
2023-03-31T01:03:49.652Z,420.00
2023-03-31T01:04:49.665Z,420.00
2023-03-31T01:05:49.671Z,421.00
2023-03-31T01:06:49.726Z,422.00
2023-03-31T01:07:49.751Z,422.00
2023-03-31T01:08:49.747Z,423.00
2023-03-31T01:09:49.752Z,424.00
2023-03-31T01:10:49.823Z,426.00
2023-03-31T01:11:49.834Z,427.00
2023-03-31T01:12:49.832Z,428.00
2023-03-31T01:13:49.882Z,427.00
2023-03-31T01:14:49.894Z,427.00
2023-03-31T01:15:49.920Z,427.00
2023-03-31T01:16:49.984Z,427.00
2023-03-31T01:17:50.168Z,428.00
2023-03-31T01:18:50.150Z,427.00
2023-03-31T01:19:50.037Z,426.00
2023-03-31T01:20:50.046Z,426.00
2023-03-31T01:21:50.091Z,424.00
2023-03-31T01:22:50.093Z,424.00
2023-03-31T01:23:50.157Z,424.00
2023-03-31T01:24:50.171Z,424.00
2023-03-31T01:25:50.226Z,422.00
2023-03-31T01:26:50.341Z,420.00
2023-03-31T01:27:50.230Z,418.00
2023-03-31T01:28:50.298Z,418.00
2023-03-31T01:29:50.331Z,419.00
2023-03-31T01:30:50.369Z,419.00
2023-03-31T01:31:50.432Z,420.00
2023-03-31T01:32:50.539Z,421.00
2023-03-31T01:33:50.442Z,422.00
2023-03-31T01:34:50.493Z,419.00
2023-03-31T01:35:50.510Z,419.00
2023-03-31T01:36:50.496Z,422.00
2023-03-31T01:37:50.523Z,424.00
2023-03-31T01:38:50.579Z,422.00
2023-03-31T01:39:50.580Z,422.00
2023-03-31T01:40:50.641Z,422.00
2023-03-31T01:41:50.644Z,425.00
2023-03-31T01:42:50.677Z,427.00
2023-03-31T01:43:50.708Z,429.00
2023-03-31T01:44:50.708Z,431.00
2023-03-31T01:45:50.909Z,431.00
2023-03-31T01:46:50.840Z,431.00
2023-03-31T01:47:50.907Z,430.00
2023-03-31T01:48:50.858Z,432.00
2023-03-31T01:49:50.894Z,433.00
2023-03-31T01:50:50.895Z,434.00
2023-03-31T01:51:50.956Z,436.00
2023-03-31T01:52:50.960Z,435.00
2023-03-31T01:53:50.997Z,432.00
2023-03-31T01:54:51.001Z,429.00
2023-03-31T01:55:51.040Z,428.00
2023-03-31T01:56:51.057Z,425.00
2023-03-31T01:57:51.075Z,425.00
2023-03-31T01:58:51.124Z,423.00
2023-03-31T01:59:51.168Z,423.00
2023-03-31T02:00:51.179Z,424.00
2023-03-31T02:01:51.513Z,425.00
2023-03-31T02:02:51.365Z,425.00
2023-03-31T02:03:51.323Z,424.00
2023-03-31T02:04:51.373Z,423.00
2023-03-31T02:05:51.387Z,423.00
2023-03-31T02:06:51.430Z,423.00
2023-03-31T02:07:51.500Z,423.00
2023-03-31T02:08:51.492Z,423.00
2023-03-31T02:09:51.547Z,422.00
2023-03-31T02:10:51.566Z,420.00
2023-03-31T02:11:51.625Z,417.00
2023-03-31T02:12:51.676Z,416.00
2023-03-31T02:13:51.676Z,415.00
2023-03-31T02:14:51.698Z,414.00
2023-03-31T02:15:51.808Z,415.00
2023-03-31T02:16:51.881Z,415.00
2023-03-31T02:17:51.878Z,418.00
2023-03-31T02:18:51.913Z,419.00
2023-03-31T02:19:51.919Z,419.00
2023-03-31T02:20:51.932Z,420.00
2023-03-31T02:21:51.992Z,419.00
2023-03-31T02:22:52.039Z,420.00
2023-03-31T02:23:52.104Z,418.00
2023-03-31T02:24:52.116Z,417.00
2023-03-31T02:25:52.147Z,415.00
2023-03-31T02:26:52.136Z,415.00
2023-03-31T02:27:52.172Z,414.00
2023-03-31T02:28:52.309Z,415.00
2023-03-31T02:29:52.256Z,417.00
2023-03-31T02:30:52.308Z,416.00
2023-03-31T02:31:52.435Z,414.00
2023-03-31T02:32:52.415Z,412.00
2023-03-31T02:33:52.430Z,413.00
2023-03-31T02:34:52.497Z,413.00
2023-03-31T02:35:52.595Z,412.00
2023-03-31T02:36:52.522Z,412.00
2023-03-31T02:37:52.581Z,413.00
2023-03-31T02:38:52.601Z,414.00
2023-03-31T02:39:52.678Z,415.00
2023-03-31T02:40:52.699Z,416.00
2023-03-31T02:41:52.743Z,414.00
2023-03-31T02:42:52.798Z,416.00
2023-03-31T02:43:52.858Z,416.00
2023-03-31T02:44:52.874Z,415.00
2023-03-31T02:45:52.903Z,414.00
2023-03-31T02:46:52.907Z,414.00
2023-03-31T02:47:52.962Z,416.00
2023-03-31T02:48:52.990Z,417.00
2023-03-31T02:49:53.021Z,418.00
2023-03-31T02:50:53.069Z,417.00
2023-03-31T02:51:53.122Z,415.00
2023-03-31T02:52:53.135Z,415.00
2023-03-31T02:53:53.184Z,418.00
2023-03-31T02:54:53.197Z,418.00
2023-03-31T02:55:53.230Z,418.00
2023-03-31T02:56:53.273Z,419.00
2023-03-31T02:57:53.321Z,419.00
2023-03-31T02:58:53.371Z,416.00
2023-03-31T02:59:53.378Z,414.00
2023-03-31T03:00:53.451Z,415.00
2023-03-31T03:01:53.440Z,416.00
2023-03-31T03:02:53.572Z,416.00
2023-03-31T03:03:53.500Z,414.00
2023-03-31T03:04:53.525Z,413.00
2023-03-31T03:05:53.589Z,414.00
2023-03-31T03:06:53.696Z,415.00
2023-03-31T03:07:53.644Z,416.00
2023-03-31T03:08:53.694Z,415.00
2023-03-31T03:09:53.700Z,414.00
2023-03-31T03:10:53.758Z,414.00
2023-03-31T03:11:53.786Z,412.00
2023-03-31T03:12:53.835Z,412.00
2023-03-31T03:13:53.869Z,414.00
2023-03-31T03:14:53.901Z,415.00
2023-03-31T03:15:53.952Z,412.00
2023-03-31T03:16:54.003Z,412.00
2023-03-31T03:17:54.035Z,411.00
2023-03-31T03:18:54.072Z,410.00
2023-03-31T03:19:54.087Z,409.00
2023-03-31T03:20:54.132Z,409.00
2023-03-31T03:21:54.202Z,411.00
2023-03-31T03:22:54.198Z,412.00
2023-03-31T03:23:54.201Z,413.00
2023-03-31T03:24:54.251Z,412.00
2023-03-31T03:25:54.321Z,411.00
2023-03-31T03:26:54.331Z,410.00
2023-03-31T03:27:54.405Z,408.00
2023-03-31T03:28:54.403Z,409.00
2023-03-31T03:29:54.446Z,411.00
2023-03-31T03:30:54.476Z,413.00
2023-03-31T03:31:54.479Z,414.00
2023-03-31T03:32:54.546Z,412.00
2023-03-31T03:33:54.583Z,414.00
2023-03-31T03:34:54.584Z,416.00
2023-03-31T03:35:54.680Z,413.00
2023-03-31T03:36:54.677Z,413.00
2023-03-31T03:37:54.716Z,413.00
2023-03-31T03:38:54.806Z,410.00
2023-03-31T03:39:54.766Z,411.00
2023-03-31T03:40:54.807Z,411.00
2023-03-31T03:41:54.841Z,414.00
2023-03-31T03:42:54.926Z,411.00
2023-03-31T03:43:54.972Z,410.00
2023-03-31T03:44:54.969Z,410.00
2023-03-31T03:45:55.039Z,411.00
2023-03-31T03:46:55.028Z,411.00
2023-03-31T03:47:55.113Z,413.00
2023-03-31T03:48:55.142Z,411.00
2023-03-31T03:49:55.162Z,411.00
2023-03-31T03:50:55.222Z,411.00
2023-03-31T03:51:55.194Z,410.00
2023-03-31T03:52:55.234Z,410.00
2023-03-31T03:53:55.280Z,410.00
2023-03-31T03:54:55.345Z,410.00
2023-03-31T03:55:55.364Z,409.00
2023-03-31T03:56:55.455Z,407.00
2023-03-31T03:57:55.453Z,407.00
2023-03-31T03:58:55.451Z,408.00
2023-03-31T03:59:55.505Z,408.00
2023-03-31T04:00:55.533Z,408.00
2023-03-31T04:01:55.592Z,409.00
2023-03-31T04:02:55.700Z,408.00
2023-03-31T04:03:55.650Z,409.00
2023-03-31T04:04:55.833Z,409.00
2023-03-31T04:05:55.763Z,411.00
2023-03-31T04:06:55.805Z,413.00
2023-03-31T04:07:55.891Z,411.00
2023-03-31T04:08:55.907Z,409.00
2023-03-31T04:09:55.961Z,408.00
2023-03-31T04:10:56.035Z,408.00
2023-03-31T04:11:56.062Z,410.00
2023-03-31T04:12:56.115Z,414.00
2023-03-31T04:13:56.156Z,417.00
2023-03-31T04:14:56.274Z,417.00
2023-03-31T04:15:56.319Z,420.00
2023-03-31T04:16:56.532Z,419.00
2023-03-31T04:17:56.362Z,418.00
2023-03-31T04:18:56.422Z,417.00
2023-03-31T04:19:56.534Z,417.00
2023-03-31T04:20:56.575Z,419.00
2023-03-31T04:21:56.619Z,421.00
2023-03-31T04:22:56.659Z,423.00
2023-03-31T04:23:56.742Z,419.00
2023-03-31T04:24:56.819Z,418.00
2023-03-31T04:25:56.877Z,420.00
2023-03-31T04:26:56.923Z,421.00
2023-03-31T04:27:56.971Z,422.00
2023-03-31T04:28:57.040Z,421.00
2023-03-31T04:29:57.113Z,423.00
2023-03-31T04:30:57.166Z,423.00
2023-03-31T04:31:57.313Z,425.00
2023-03-31T04:32:57.336Z,427.00
2023-03-31T04:33:57.350Z,427.00
2023-03-31T04:34:57.402Z,427.00
2023-03-31T04:35:57.481Z,425.00
2023-03-31T04:36:57.516Z,424.00
2023-03-31T04:37:57.551Z,425.00
2023-03-31T04:38:57.628Z,428.00
2023-03-31T04:39:57.627Z,427.00
2023-03-31T04:40:57.692Z,425.00
2023-03-31T04:41:57.754Z,423.00
2023-03-31T04:42:57.810Z,421.00
2023-03-31T04:43:57.874Z,420.00
2023-03-31T04:44:57.858Z,423.00
2023-03-31T04:45:59.050Z,424.00
2023-03-31T04:46:57.978Z,422.00
2023-03-31T04:47:58.062Z,420.00
2023-03-31T04:48:58.052Z,420.00
2023-03-31T04:49:58.101Z,418.00
2023-03-31T04:50:58.147Z,417.00
2023-03-31T04:51:58.186Z,419.00
2023-03-31T04:52:58.231Z,419.00
2023-03-31T04:53:58.295Z,420.00
2023-03-31T04:54:58.350Z,421.00
2023-03-31T04:55:58.386Z,418.00
2023-03-31T04:56:58.481Z,416.00
2023-03-31T04:57:58.514Z,415.00
2023-03-31T04:58:58.538Z,415.00
2023-03-31T04:59:58.591Z,417.00
2023-03-31T05:00:58.649Z,418.00
2023-03-31T05:01:58.694Z,418.00
2023-03-31T05:02:58.777Z,419.00
2023-03-31T05:03:58.832Z,419.00
2023-03-31T05:04:58.849Z,417.00
2023-03-31T05:05:58.938Z,416.00
2023-03-31T05:06:59.057Z,416.00
2023-03-31T05:07:59.015Z,417.00
2023-03-31T05:08:59.098Z,417.00
2023-03-31T05:09:59.132Z,416.00
2023-03-31T05:10:59.199Z,415.00
2023-03-31T05:11:59.295Z,413.00
2023-03-31T05:12:59.320Z,412.00
2023-03-31T05:13:59.346Z,412.00
2023-03-31T05:14:59.412Z,411.00
2023-03-31T05:15:59.479Z,412.00
2023-03-31T05:16:59.693Z,413.00
2023-03-31T05:17:59.590Z,412.00
2023-03-31T05:18:59.644Z,412.00
2023-03-31T05:19:59.710Z,411.00
2023-03-31T05:20:59.764Z,411.00
2023-03-31T05:21:59.805Z,410.00
2023-03-31T05:22:59.849Z,411.00
2023-03-31T05:24:00.017Z,409.00
2023-03-31T05:24:59.961Z,409.00
2023-03-31T05:26:00.037Z,410.00
2023-03-31T05:27:00.129Z,409.00
2023-03-31T05:28:00.210Z,409.00
2023-03-31T05:29:00.192Z,409.00
2023-03-31T05:30:00.286Z,409.00
2023-03-31T05:31:00.342Z,410.00
2023-03-31T05:32:00.378Z,409.00
2023-03-31T05:33:00.561Z,407.00
2023-03-31T05:34:00.509Z,412.00
2023-03-31T05:35:00.545Z,415.00
2023-03-31T05:36:00.676Z,469.00
2023-03-31T05:37:00.691Z,478.00
2023-03-31T05:38:00.719Z,504.00
2023-03-31T05:39:00.775Z,520.00
2023-03-31T05:40:00.809Z,577.00
2023-03-31T05:41:00.881Z,598.00
2023-03-31T05:42:00.858Z,604.00
2023-03-31T05:43:00.886Z,610.00
2023-03-31T05:44:00.910Z,611.00
2023-03-31T05:45:00.902Z,617.00
2023-03-31T05:46:00.941Z,624.00
2023-03-31T05:47:01.042Z,648.00
2023-03-31T05:48:00.973Z,631.00
2023-03-31T05:49:00.927Z,592.00
2023-03-31T05:50:01.003Z,592.00
2023-03-31T05:51:00.960Z,587.00
2023-03-31T05:52:00.993Z,571.00
2023-03-31T05:53:01.007Z,563.00
2023-03-31T05:54:01.076Z,554.00
2023-03-31T05:55:01.075Z,547.00
2023-03-31T05:56:01.137Z,539.00
2023-03-31T05:57:01.170Z,535.00
2023-03-31T05:58:01.193Z,534.00
2023-03-31T05:59:01.207Z,532.00
2023-03-31T06:00:01.230Z,526.00
2023-03-31T06:01:01.266Z,521.00
2023-03-31T06:02:01.321Z,514.00
2023-03-31T06:03:01.363Z,499.00
2023-03-31T06:04:01.378Z,491.00
2023-03-31T06:05:01.364Z,491.00
2023-03-31T06:06:01.390Z,492.00
2023-03-31T06:07:01.452Z,492.00
2023-03-31T06:08:01.472Z,490.00
2023-03-31T06:09:01.587Z,487.00
2023-03-31T06:10:01.588Z,483.00
2023-03-31T06:11:01.652Z,479.00
2023-03-31T06:12:01.666Z,475.00
2023-03-31T06:14:21.306Z,465.00
2023-03-31T06:15:21.324Z,457.00
2023-03-31T06:16:20.862Z,455.00
2023-03-31T06:17:21.396Z,454.00
2023-03-31T06:18:20.845Z,455.00
2023-03-31T06:19:20.956Z,454.00
2023-03-31T06:20:28.269Z,453.00
2023-03-31T06:21:21.900Z,456.00
2023-03-31T06:22:20.921Z,454.00
2023-03-31T06:23:21.335Z,452.00
2023-03-31T06:24:21.325Z,451.00
2023-03-31T06:25:20.901Z,450.00
2023-03-31T06:26:20.896Z,448.00
2023-03-31T06:27:20.905Z,448.00
2023-03-31T06:28:20.873Z,450.00
2023-03-31T06:29:20.863Z,450.00
2023-03-31T06:30:21.331Z,451.00
2023-03-31T06:31:20.849Z,450.00
2023-03-31T06:32:20.927Z,450.00
2023-03-31T06:33:20.787Z,450.00
2023-03-31T06:34:21.553Z,449.00
2023-03-31T06:35:21.293Z,450.00
2023-03-31T06:36:20.876Z,448.00
2023-03-31T06:37:21.331Z,448.00
2023-03-31T06:38:21.036Z,449.00
2023-03-31T06:39:21.103Z,453.00
2023-03-31T06:40:21.081Z,450.00
2023-03-31T06:41:21.238Z,451.00
2023-03-31T06:42:21.103Z,452.00
2023-03-31T06:43:21.140Z,449.00
2023-03-31T06:44:21.185Z,449.00
2023-03-31T06:45:21.228Z,449.00
2023-03-31T06:46:21.183Z,446.00
2023-03-31T06:47:21.242Z,442.00
2023-03-31T06:48:21.169Z,443.00
2023-03-31T06:49:21.197Z,443.00
2023-03-31T06:50:21.230Z,444.00
2023-03-31T06:51:21.804Z,444.00
2023-03-31T06:52:21.273Z,441.00
2023-03-31T06:53:21.325Z,441.00
2023-03-31T06:54:21.321Z,442.00
2023-03-31T06:55:21.387Z,444.00
2023-03-31T06:56:21.407Z,443.00
2023-03-31T06:57:21.445Z,440.00
2023-03-31T06:58:21.451Z,437.00
2023-03-31T06:59:21.529Z,434.00
2023-03-31T07:00:23.148Z,432.00
2023-03-31T07:01:21.660Z,435.00
2023-03-31T07:02:21.684Z,436.00
2023-03-31T07:03:21.793Z,437.00
2023-03-31T07:04:21.690Z,438.00
2023-03-31T07:05:22.246Z,438.00
2023-03-31T07:06:21.714Z,437.00
2023-03-31T07:07:21.894Z,435.00
2023-03-31T07:08:21.835Z,435.00
2023-03-31T07:09:21.819Z,434.00
2023-03-31T07:10:21.911Z,434.00
2023-03-31T07:11:21.939Z,432.00
2023-03-31T07:12:21.992Z,431.00
2023-03-31T07:13:22.049Z,430.00
2023-03-31T07:14:22.132Z,429.00
2023-03-31T07:15:22.146Z,431.00
2023-03-31T07:16:22.179Z,426.00
2023-03-31T07:17:22.183Z,426.00
2023-03-31T07:18:22.182Z,426.00
2023-03-31T07:19:22.191Z,427.00
2023-03-31T07:20:22.275Z,427.00
2023-03-31T07:21:22.306Z,428.00
2023-03-31T07:22:22.395Z,428.00
2023-03-31T07:23:23.032Z,427.00
2023-03-31T07:24:22.454Z,428.00
2023-03-31T07:25:22.512Z,429.00
2023-03-31T07:26:22.584Z,430.00
2023-03-31T07:27:25.601Z,430.00
2023-03-31T07:28:22.647Z,430.00
2023-03-31T07:29:22.857Z,430.00
2023-03-31T07:30:22.590Z,430.00
2023-03-31T07:31:22.652Z,431.00
2023-03-31T07:32:22.714Z,432.00
2023-03-31T07:33:22.583Z,610.00
2023-03-31T07:34:22.805Z,582.00
2023-03-31T07:35:22.850Z,559.00
2023-03-31T07:36:22.552Z,558.00
2023-03-31T07:37:22.530Z,596.00
2023-03-31T07:38:22.542Z,610.00
2023-03-31T07:39:22.547Z,685.00
2023-03-31T07:40:22.545Z,762.00
2023-03-31T07:41:22.531Z,739.00
2023-03-31T07:42:22.549Z,734.00
2023-03-31T07:43:22.489Z,740.00
2023-03-31T07:44:22.464Z,747.00
2023-03-31T07:46:41.823Z,761.00
2023-03-31T07:47:41.593Z,763.00
2023-03-31T07:48:41.556Z,771.00
2023-03-31T07:49:41.526Z,778.00
2023-03-31T07:50:41.617Z,795.00
2023-03-31T07:51:41.642Z,800.00
2023-03-31T07:52:42.987Z,821.00
2023-03-31T07:53:41.774Z,824.00
2023-03-31T07:54:41.819Z,824.00
2023-03-31T07:55:41.902Z,823.00
2023-03-31T07:56:41.940Z,829.00
2023-03-31T07:57:42.093Z,838.00
2023-03-31T07:58:42.033Z,850.00
2023-03-31T07:59:42.043Z,855.00
2023-03-31T08:00:42.102Z,862.00
2023-03-31T08:01:42.153Z,870.00
2023-03-31T08:02:42.213Z,878.00
2023-03-31T08:03:42.293Z,906.00
2023-03-31T08:04:42.256Z,921.00
2023-03-31T08:05:42.323Z,959.00
2023-03-31T08:06:42.275Z,960.00
2023-03-31T08:07:42.298Z,959.00
2023-03-31T08:08:42.360Z,962.00
2023-03-31T08:09:42.593Z,962.00
2023-03-31T08:10:42.330Z,967.00
2023-03-31T08:11:42.345Z,969.00
2023-03-31T08:12:42.346Z,973.00
2023-03-31T08:13:42.350Z,971.00
2023-03-31T08:14:42.633Z,981.00
2023-03-31T08:15:42.386Z,982.00
2023-03-31T08:16:42.560Z,984.00
2023-03-31T08:17:42.438Z,993.00
2023-03-31T08:18:42.424Z,995.00
2023-03-31T08:19:42.450Z,997.00
2023-03-31T08:20:42.558Z,997.00
2023-03-31T08:21:42.575Z,1003.00
2023-03-31T08:22:42.649Z,1009.00
2023-03-31T08:23:42.700Z,1016.00
2023-03-31T08:24:42.770Z,1019.00
2023-03-31T08:25:42.831Z,1021.00
2023-03-31T08:26:42.944Z,1025.00
2023-03-31T08:27:42.902Z,1015.00
2023-03-31T08:28:43.110Z,993.00
2023-03-31T08:29:43.035Z,974.00
2023-03-31T08:30:43.015Z,923.00
2023-03-31T08:31:43.086Z,899.00
2023-03-31T08:32:43.119Z,879.00
2023-03-31T08:33:43.079Z,865.00
2023-03-31T08:34:43.073Z,858.00
2023-03-31T08:35:43.177Z,852.00
2023-03-31T08:36:43.160Z,840.00
2023-03-31T08:37:43.176Z,830.00
2023-03-31T08:38:43.166Z,812.00
2023-03-31T08:39:43.178Z,799.00
2023-03-31T08:40:43.181Z,787.00
2023-03-31T08:41:43.194Z,781.00
2023-03-31T08:42:43.196Z,785.00
2023-03-31T08:43:43.208Z,783.00
2023-03-31T08:44:43.205Z,785.00
2023-03-31T08:45:43.273Z,780.00
2023-03-31T08:46:43.242Z,776.00
2023-03-31T08:47:43.232Z,767.00
2023-03-31T08:48:43.232Z,756.00
2023-03-31T08:49:43.235Z,749.00
2023-03-31T08:50:43.219Z,741.00
2023-03-31T08:51:43.260Z,733.00
2023-03-31T08:52:43.234Z,725.00
2023-03-31T08:53:43.303Z,718.00
2023-03-31T08:54:43.289Z,710.00
2023-03-31T08:55:43.298Z,705.00
2023-03-31T08:56:43.309Z,698.00
2023-03-31T08:57:45.462Z,691.00
2023-03-31T08:58:43.324Z,680.00
2023-03-31T08:59:43.361Z,676.00
2023-03-31T09:00:43.393Z,668.00
2023-03-31T09:01:54.488Z,653.00
2023-03-31T09:02:44.593Z,641.00
2023-03-31T09:03:43.466Z,633.00
2023-03-31T09:04:43.652Z,629.00
2023-03-31T09:05:56.832Z,623.00
2023-03-31T09:06:44.325Z,616.00
2023-03-31T09:07:43.294Z,608.00
2023-03-31T09:08:43.331Z,601.00
2023-03-31T09:09:43.327Z,597.00
2023-03-31T09:10:43.305Z,590.00
2023-03-31T09:11:43.316Z,587.00
2023-03-31T09:12:43.309Z,580.00
2023-03-31T09:13:43.279Z,573.00
2023-03-31T09:14:43.311Z,571.00
2023-03-31T09:15:43.255Z,567.00
2023-03-31T09:16:43.393Z,563.00
2023-03-31T09:17:43.302Z,558.00
2023-03-31T09:18:43.247Z,554.00
2023-03-31T09:19:43.266Z,553.00
2023-03-31T09:20:43.270Z,553.00
2023-03-31T09:21:43.487Z,554.00
2023-03-31T09:22:43.241Z,554.00
2023-03-31T09:23:43.227Z,554.00
2023-03-31T09:24:43.216Z,553.00
2023-03-31T09:25:43.222Z,550.00
2023-03-31T09:26:43.268Z,546.00
2023-03-31T09:27:43.249Z,545.00
2023-03-31T09:28:43.286Z,618.00
2023-03-31T09:29:43.639Z,621.00
2023-03-31T09:30:43.290Z,676.00
2023-03-31T09:31:43.681Z,683.00
2023-03-31T09:32:43.386Z,682.00
2023-03-31T09:33:43.339Z,682.00
2023-03-31T09:34:43.630Z,674.00
2023-03-31T09:35:45.885Z,675.00
2023-03-31T09:36:43.335Z,664.00
2023-03-31T09:37:43.377Z,645.00
2023-03-31T09:38:43.430Z,644.00
2023-03-31T09:39:43.331Z,649.00
2023-03-31T09:40:43.312Z,653.00
2023-03-31T09:41:43.288Z,658.00
2023-03-31T09:42:43.326Z,664.00
2023-03-31T09:43:43.275Z,668.00
2023-03-31T09:44:43.321Z,670.00
2023-03-31T09:45:44.163Z,676.00
2023-03-31T09:46:43.323Z,679.00
2023-03-31T09:47:43.341Z,681.00
2023-03-31T09:48:43.255Z,683.00
2023-03-31T09:49:43.268Z,684.00
2023-03-31T09:50:44.670Z,686.00
2023-03-31T09:51:43.224Z,687.00
2023-03-31T09:52:43.271Z,686.00
2023-03-31T09:53:43.213Z,691.00
2023-03-31T09:54:43.645Z,694.00
2023-03-31T09:55:43.284Z,693.00
2023-03-31T09:56:43.335Z,696.00
2023-03-31T09:57:43.194Z,698.00
2023-03-31T09:58:43.203Z,703.00
2023-03-31T09:59:43.639Z,705.00
2023-03-31T10:00:43.228Z,707.00
2023-03-31T10:01:43.303Z,709.00
2023-03-31T10:02:43.299Z,708.00
2023-03-31T10:03:43.324Z,707.00
2023-03-31T10:04:43.352Z,712.00
2023-03-31T10:05:43.420Z,718.00
2023-03-31T10:06:43.421Z,723.00
2023-03-31T10:07:43.474Z,719.00
2023-03-31T10:08:43.548Z,719.00
2023-03-31T10:09:58.135Z,718.00
2023-03-31T10:10:43.776Z,721.00
2023-03-31T10:11:43.775Z,721.00
2023-03-31T10:12:43.787Z,720.00
2023-03-31T10:13:44.179Z,719.00
2023-03-31T10:14:43.808Z,721.00
2023-03-31T10:15:43.818Z,724.00
2023-03-31T10:16:44.174Z,726.00
2023-03-31T10:17:54.452Z,725.00
2023-03-31T10:18:44.947Z,730.00
2023-03-31T10:19:43.867Z,732.00
2023-03-31T10:20:43.866Z,734.00
2023-03-31T10:21:43.852Z,734.00
2023-03-31T10:22:43.885Z,733.00
2023-03-31T10:23:44.173Z,734.00
2023-03-31T10:24:43.905Z,736.00
2023-03-31T10:25:43.840Z,739.00
2023-03-31T10:26:50.641Z,740.00
2023-03-31T10:27:43.828Z,738.00
2023-03-31T10:28:44.184Z,734.00
2023-03-31T10:29:43.811Z,727.00
2023-03-31T10:30:43.856Z,719.00
2023-03-31T10:31:43.824Z,648.00
2023-03-31T10:32:43.837Z,643.00
2023-03-31T10:33:44.218Z,636.00
2023-03-31T10:34:43.769Z,634.00
2023-03-31T10:35:43.901Z,637.00
2023-03-31T10:36:43.747Z,635.00
2023-03-31T10:37:43.751Z,635.00
2023-03-31T10:38:44.208Z,636.00
2023-03-31T10:39:43.737Z,635.00
2023-03-31T10:40:43.769Z,637.00
2023-03-31T10:41:43.727Z,639.00
2023-03-31T10:42:43.705Z,642.00
2023-03-31T10:43:43.723Z,644.00
2023-03-31T10:44:43.722Z,642.00
2023-03-31T10:45:43.705Z,640.00
2023-03-31T10:46:43.695Z,636.00
2023-03-31T10:47:43.732Z,635.00
2023-03-31T10:48:44.165Z,634.00
2023-03-31T10:49:51.133Z,634.00
2023-03-31T10:50:43.684Z,633.00
2023-03-31T10:51:43.681Z,632.00
2023-03-31T10:52:43.691Z,629.00
2023-03-31T10:53:43.620Z,628.00
2023-03-31T10:54:43.660Z,630.00
2023-03-31T10:55:43.656Z,629.00
2023-03-31T10:56:43.806Z,630.00
2023-03-31T10:57:43.700Z,633.00
2023-03-31T10:58:51.884Z,634.00
2023-03-31T10:59:44.630Z,633.00
2023-03-31T11:00:43.652Z,629.00
2023-03-31T11:01:43.585Z,628.00
2023-03-31T11:02:43.685Z,627.00
2023-03-31T11:03:43.714Z,627.00
2023-03-31T11:04:46.023Z,627.00
2023-03-31T11:05:43.706Z,628.00
2023-03-31T11:06:43.734Z,628.00
2023-03-31T11:07:43.794Z,629.00
2023-03-31T11:08:43.826Z,628.00
2023-03-31T11:09:43.895Z,626.00
2023-03-31T11:10:43.909Z,625.00
2023-03-31T11:11:43.949Z,624.00
2023-03-31T11:12:44.049Z,626.00
2023-03-31T11:13:44.144Z,628.00
2023-03-31T11:14:44.187Z,628.00
2023-03-31T11:15:44.770Z,629.00
2023-03-31T11:16:44.461Z,632.00
2023-03-31T11:17:44.338Z,636.00
2023-03-31T11:18:44.403Z,644.00
2023-03-31T11:19:44.416Z,657.00
2023-03-31T11:20:44.694Z,662.00
2023-03-31T11:21:44.555Z,667.00
2023-03-31T11:22:44.571Z,663.00
2023-03-31T11:23:44.674Z,655.00
2023-03-31T11:24:44.729Z,650.00
2023-03-31T11:25:45.187Z,645.00
2023-03-31T11:26:44.784Z,637.00
2023-03-31T11:27:44.974Z,630.00
2023-03-31T11:28:44.912Z,624.00
2023-03-31T11:29:44.884Z,619.00
2023-03-31T11:30:44.963Z,615.00
2023-03-31T11:31:45.005Z,610.00
2023-03-31T11:32:45.053Z,603.00
2023-03-31T11:33:44.984Z,600.00
2023-03-31T11:34:44.945Z,592.00
2023-03-31T11:35:45.038Z,585.00
2023-03-31T11:36:45.010Z,579.00
2023-03-31T11:37:45.113Z,576.00
2023-03-31T11:38:45.080Z,571.00
2023-03-31T11:39:45.086Z,566.00
2023-03-31T11:40:45.086Z,560.00
2023-03-31T11:41:45.140Z,555.00
2023-03-31T11:42:45.117Z,550.00
2023-03-31T11:43:45.160Z,547.00
2023-03-31T11:44:45.169Z,542.00
2023-03-31T11:45:45.193Z,536.00
2023-03-31T11:46:45.226Z,532.00
2023-03-31T11:47:45.211Z,528.00
2023-03-31T11:48:45.191Z,527.00
2023-03-31T11:49:45.305Z,524.00
2023-03-31T11:50:45.275Z,522.00
2023-03-31T11:51:45.270Z,519.00
2023-03-31T11:52:45.270Z,515.00
2023-03-31T11:53:45.270Z,510.00
2023-03-31T11:54:45.263Z,507.00
2023-03-31T11:55:45.301Z,505.00
2023-03-31T11:56:45.331Z,503.00
2023-03-31T11:57:45.322Z,502.00
2023-03-31T11:58:45.366Z,499.00
2023-03-31T11:59:45.390Z,496.00
2023-03-31T12:00:45.371Z,495.00
2023-03-31T12:01:45.341Z,495.00
2023-03-31T12:02:45.443Z,496.00
2023-03-31T12:03:45.373Z,497.00
2023-03-31T12:04:45.352Z,495.00
2023-03-31T12:05:45.405Z,494.00
2023-03-31T12:06:45.430Z,491.00
2023-03-31T12:07:45.427Z,490.00
2023-03-31T12:08:45.442Z,490.00
2023-03-31T12:09:45.435Z,488.00
2023-03-31T12:10:45.427Z,489.00
2023-03-31T12:11:45.457Z,491.00
2023-03-31T12:12:45.462Z,490.00
2023-03-31T12:13:45.460Z,490.00
2023-03-31T12:14:45.474Z,491.00
2023-03-31T12:15:45.494Z,491.00
2023-03-31T12:16:48.315Z,492.00
2023-03-31T12:17:45.505Z,491.00
2023-03-31T12:18:45.457Z,488.00
2023-03-31T12:19:45.539Z,487.00
2023-03-31T12:20:45.422Z,489.00
2023-03-31T12:21:45.418Z,489.00
2023-03-31T12:22:45.442Z,491.00
2023-03-31T12:23:45.414Z,491.00
2023-03-31T12:24:45.435Z,490.00
2023-03-31T12:25:45.451Z,488.00
2023-03-31T12:26:45.379Z,487.00
2023-03-31T12:27:45.398Z,489.00
2023-03-31T12:28:45.426Z,489.00
2023-03-31T12:29:45.360Z,489.00
2023-03-31T12:30:45.356Z,487.00
2023-03-31T12:31:45.421Z,486.00